Time;durP1;ratioP1;P1;durP2;ratioP2;P2;SDS_P1;SDS_P2;PMS_P1;PMS_P2;Temp;Humidity;BMP_temperature;BMP_pressure;BME280_temperature;BME280_humidity;BME280_pressure;Samples;Min_cycle;Max_cycle;Signal;HPM_P1;HPM_P2
2023/03/29 00:00:18;;;;;;;;;;;4.19;4.69;;;;;;2670049;76;20930;-90
2023/03/29 00:03:46;;;;;;;;;;;4.37;5.56;;;;;;2672842;76;20438;-90
2023/03/29 00:07:14;;;;;;;;;;;4.49;5.97;;;;;;2672460;76;20900;-91
2023/03/29 00:10:42;;;;;;;;;;;4.57;3.48;;;;;;2672561;76;20840;-90
2023/03/29 00:14:10;;;;;;;;;;;4.29;2.58;;;;;;2671370;76;20466;-90
2023/03/29 00:17:38;;;;;;;;;;;4.38;3.14;;;;;;2672586;76;20920;-89
2023/03/29 00:21:06;;;;;;;;;;;4.43;3.02;;;;;;2672603;76;20416;-90
2023/03/29 00:24:35;;;;;;;;;;;4.47;3.43;;;;;;2671090;76;20444;-89
2023/03/29 00:28:03;;;;;;;;;;;4.58;4.14;;;;;;2671947;76;20416;-89
2023/03/29 00:31:31;;;;;;;;;;;4.46;3.51;;;;;;2672004;76;20439;-89
2023/03/29 00:35:04;;;;;;;;;;;4.44;3.71;;;;;;2672275;76;20428;-89
2023/03/29 00:38:32;;;;;;;;;;;4.42;4.37;;;;;;2672435;76;20446;-90
2023/03/29 00:42:00;;;;;;;;;;;4.54;5.02;;;;;;2672450;76;20477;-90
2023/03/29 00:45:32;;;;;;;;;;;4.31;5.48;;;;;;2671327;76;20466;-90
2023/03/29 00:49:00;;;;;;;;;;;4.50;6.30;;;;;;2671653;76;20428;-90
2023/03/29 00:52:29;;;;;;;;;;;4.30;6.59;;;;;;2671218;76;20400;-90
2023/03/29 00:55:57;;;;;;;;;;;4.41;7.23;;;;;;2671577;76;20416;-89
2023/03/29 00:59:25;;;;;;;;;;;4.58;7.29;;;;;;2670882;76;20409;-90
2023/03/29 01:02:53;;;;;;;;;;;4.56;7.44;;;;;;2670615;76;20441;-90
2023/03/29 01:06:22;;;;;;;;;;;4.56;7.69;;;;;;2673267;76;20443;-91
2023/03/29 01:09:50;;;;;;;;;;;4.53;8.08;;;;;;2672065;76;20428;-90
2023/03/29 01:13:18;;;;;;;;;;;4.57;8.37;;;;;;2670780;76;20420;-90
2023/03/29 01:16:46;;;;;;;;;;;4.59;8.62;;;;;;2671521;76;20459;-90
2023/03/29 01:20:18;;;;;;;;;;;4.66;8.88;;;;;;2672585;76;21171;-90
2023/03/29 01:23:45;;;;;;;;;;;4.69;9.03;;;;;;2671855;76;20890;-90
2023/03/29 01:27:14;;;;;;;;;;;4.75;9.27;;;;;;2671307;76;20420;-90
2023/03/29 01:30:42;;;;;;;;;;;4.80;9.53;;;;;;2671378;76;20745;-90
2023/03/29 01:34:10;;;;;;;;;;;4.82;9.74;;;;;;2671634;76;20296;-89
2023/03/29 01:37:38;;;;;;;;;;;4.89;9.96;;;;;;2671823;76;20449;-90
2023/03/29 01:41:06;;;;;;;;;;;4.97;10.17;;;;;;2672008;76;20580;-90
2023/03/29 01:44:35;;;;;;;;;;;4.97;10.32;;;;;;2671337;76;20409;-90
2023/03/29 01:48:03;;;;;;;;;;;5.02;10.65;;;;;;2669993;76;20337;-90
2023/03/29 01:51:31;;;;;;;;;;;5.00;10.89;;;;;;2671490;76;20813;-90
2023/03/29 01:54:59;;;;;;;;;;;5.01;11.11;;;;;;2672178;76;20358;-90
2023/03/29 01:58:27;;;;;;;;;;;5.02;11.25;;;;;;2670997;76;20790;-90
2023/03/29 02:01:55;;;;;;;;;;;5.06;11.46;;;;;;2671993;76;20356;-89
2023/03/29 02:05:25;;;;;;;;;;;5.03;11.47;;;;;;2671498;76;20511;-89
2023/03/29 02:08:54;;;;;;;;;;;5.04;11.49;;;;;;2671683;76;20462;-89
2023/03/29 02:12:22;;;;;;;;;;;4.97;11.65;;;;;;2672115;76;20315;-87
2023/03/29 02:15:50;;;;;;;;;;;4.96;11.87;;;;;;2671556;76;20912;-87
2023/03/29 02:19:18;;;;;;;;;;;4.98;12.04;;;;;;2672067;76;20347;-87
2023/03/29 02:22:47;;;;;;;;;;;4.95;12.18;;;;;;2672313;76;20312;-87
2023/03/29 02:26:15;;;;;;;;;;;4.96;12.33;;;;;;2671325;76;20600;-87
2023/03/29 02:29:45;;;;;;;;;;;4.95;12.39;;;;;;2671895;76;21089;-87
2023/03/29 02:33:13;;;;;;;;;;;4.93;12.46;;;;;;2671326;76;20337;-87
2023/03/29 02:36:41;;;;;;;;;;;4.92;12.66;;;;;;2671381;76;20417;-87
2023/03/29 02:40:11;;;;;;;;;;;4.93;12.75;;;;;;2671699;76;20379;-87
2023/03/29 02:43:39;;;;;;;;;;;4.88;12.88;;;;;;2671418;76;20350;-87
2023/03/29 02:47:07;;;;;;;;;;;4.84;13.00;;;;;;2671130;76;20349;-87
2023/03/29 02:50:35;;;;;;;;;;;4.88;13.12;;;;;;2671825;76;20372;-87
2023/03/29 02:54:04;;;;;;;;;;;4.87;13.21;;;;;;2671181;76;20892;-87
2023/03/29 02:57:34;;;;;;;;;;;4.86;13.31;;;;;;2671199;76;21069;-88
2023/03/29 03:01:02;;;;;;;;;;;4.88;13.42;;;;;;2671813;76;20326;-87
2023/03/29 03:04:30;;;;;;;;;;;4.82;13.66;;;;;;2671756;76;20642;-88
2023/03/29 03:07:58;;;;;;;;;;;4.84;13.92;;;;;;2672134;76;20353;-87
2023/03/29 03:11:26;;;;;;;;;;;4.83;13.98;;;;;;2671649;76;20425;-87
2023/03/29 03:14:55;;;;;;;;;;;4.84;14.04;;;;;;2671388;76;20446;-87
2023/03/29 03:18:23;;;;;;;;;;;4.83;14.16;;;;;;2671206;76;20429;-87
2023/03/29 03:21:51;;;;;;;;;;;4.82;14.26;;;;;;2669925;76;20451;-88
2023/03/29 03:25:20;;;;;;;;;;;4.86;14.35;;;;;;2671612;76;20961;-88
2023/03/29 03:28:48;;;;;;;;;;;4.84;14.47;;;;;;2672444;76;20450;-88
2023/03/29 03:32:16;;;;;;;;;;;4.83;14.46;;;;;;2672013;76;20477;-88
2023/03/29 03:35:45;;;;;;;;;;;4.83;14.42;;;;;;2671971;76;20487;-89
2023/03/29 03:39:13;;;;;;;;;;;4.84;14.49;;;;;;2672090;76;20883;-88
2023/03/29 03:42:41;;;;;;;;;;;4.80;14.65;;;;;;2671363;76;20346;-87
2023/03/29 03:46:09;;;;;;;;;;;4.77;14.71;;;;;;2671831;76;20496;-89
2023/03/29 03:49:37;;;;;;;;;;;4.75;14.81;;;;;;2671623;76;20364;-88
2023/03/29 03:53:06;;;;;;;;;;;4.71;14.68;;;;;;2671457;76;20505;-88
2023/03/29 03:56:34;;;;;;;;;;;4.56;13.96;;;;;;2671247;76;20455;-88
2023/03/29 04:00:17;;;;;;;;;;;4.30;13.04;;;;;;2671565;76;20405;-89
2023/03/29 04:03:34;;;;;;;;;;;4.08;12.66;;;;;;2670376;75;21102;-89
2023/03/29 04:07:06;;;;;;;;;;;3.93;12.57;;;;;;2670940;76;20331;-88
2023/03/29 04:10:33;;;;;;;;;;;3.80;12.82;;;;;;2670856;76;20348;-89
2023/03/29 04:14:01;;;;;;;;;;;3.75;13.94;;;;;;2671293;76;20439;-88
2023/03/29 04:17:29;;;;;;;;;;;3.78;14.06;;;;;;2670832;76;20430;-88
2023/03/29 04:20:57;;;;;;;;;;;3.88;14.68;;;;;;2671765;76;20774;-88
2023/03/29 04:24:26;;;;;;;;;;;3.97;15.15;;;;;;2671351;76;20451;-88
2023/03/29 04:27:54;;;;;;;;;;;4.05;15.46;;;;;;2670963;76;20495;-88
2023/03/29 04:31:22;;;;;;;;;;;4.16;15.61;;;;;;2670696;76;20697;-88
2023/03/29 04:34:50;;;;;;;;;;;4.28;15.71;;;;;;2670989;76;20440;-88
2023/03/29 04:38:21;;;;;;;;;;;4.37;15.78;;;;;;2671298;76;20466;-88
2023/03/29 04:41:48;;;;;;;;;;;4.42;15.83;;;;;;2671141;76;20440;-88
2023/03/29 04:45:19;;;;;;;;;;;4.49;15.86;;;;;;2671033;76;20439;-85
2023/03/29 04:48:47;;;;;;;;;;;4.50;16.03;;;;;;2670523;76;20982;-85
2023/03/29 04:52:15;;;;;;;;;;;4.56;16.05;;;;;;2670962;76;20558;-86
2023/03/29 04:55:43;;;;;;;;;;;4.59;16.03;;;;;;2671000;76;20472;-86
2023/03/29 04:59:12;;;;;;;;;;;4.61;16.21;;;;;;2671935;76;20464;-87
2023/03/29 05:02:40;;;;;;;;;;;4.69;16.25;;;;;;2670347;76;20464;-86
2023/03/29 05:06:11;;;;;;;;;;;4.77;16.29;;;;;;2670774;76;20434;-86
2023/03/29 05:09:42;;;;;;;;;;;4.82;16.23;;;;;;2669430;76;21440;-86
2023/03/29 05:13:15;;;;;;;;;;;4.90;16.30;;;;;;2669344;76;20475;-85
2023/03/29 05:16:41;;;;;;;;;;;4.94;16.29;;;;;;2670162;76;20497;-87
2023/03/29 05:20:10;;;;;;;;;;;5.02;16.45;;;;;;2670600;76;20487;-85
2023/03/29 05:23:38;;;;;;;;;;;5.05;16.40;;;;;;2670693;76;20907;-86
2023/03/29 05:27:08;;;;;;;;;;;5.13;16.48;;;;;;2669426;76;20933;-88
2023/03/29 05:30:37;;;;;;;;;;;5.22;16.54;;;;;;2671314;76;20468;-89
2023/03/29 05:34:05;;;;;;;;;;;5.32;16.64;;;;;;2672769;76;20490;-89
2023/03/29 05:37:34;;;;;;;;;;;5.41;16.67;;;;;;2666889;76;20472;-89
2023/03/29 05:41:02;;;;;;;;;;;5.52;16.65;;;;;;2667927;76;20454;-89
2023/03/29 05:44:30;;;;;;;;;;;5.66;16.74;;;;;;2668241;76;20355;-89
2023/03/29 05:48:02;;;;;;;;;;;5.81;16.81;;;;;;2668680;76;20461;-89
2023/03/29 05:51:32;;;;;;;;;;;5.94;16.86;;;;;;2667983;76;20485;-89
2023/03/29 05:55:06;;;;;;;;;;;6.08;16.96;;;;;;2667469;76;20429;-89
2023/03/29 05:58:35;;;;;;;;;;;6.21;17.13;;;;;;2667648;76;20818;-88
2023/03/29 06:02:03;;;;;;;;;;;6.36;17.17;;;;;;2667162;76;20517;-89
2023/03/29 06:05:34;;;;;;;;;;;6.56;17.25;;;;;;2667212;76;20496;-89
2023/03/29 06:09:05;;;;;;;;;;;6.81;17.19;;;;;;2666670;76;20323;-89
2023/03/29 06:12:37;;;;;;;;;;;6.97;17.21;;;;;;2667289;76;20484;-88
2023/03/29 06:16:05;;;;;;;;;;;7.08;17.24;;;;;;2667238;76;20480;-89
2023/03/29 06:19:34;;;;;;;;;;;7.28;17.56;;;;;;2666856;76;20499;-89
2023/03/29 06:23:02;;;;;;;;;;;7.42;17.46;;;;;;2668791;76;20521;-89
2023/03/29 06:26:38;;;;;;;;;;;7.49;17.49;;;;;;2666921;76;20460;-89
2023/03/29 06:30:05;;;;;;;;;;;7.56;17.66;;;;;;2667057;76;20471;-89
2023/03/29 06:33:36;;;;;;;;;;;7.69;17.37;;;;;;2667521;76;20492;-89
2023/03/29 06:37:04;;;;;;;;;;;7.86;17.25;;;;;;2668156;76;20923;-89
2023/03/29 06:40:38;;;;;;;;;;;8.00;16.71;;;;;;2667993;76;20495;-89
2023/03/29 06:44:09;;;;;;;;;;;8.13;16.25;;;;;;2668090;76;20782;-89
2023/03/29 06:47:37;;;;;;;;;;;8.22;15.77;;;;;;2667835;76;20515;-89
2023/03/29 06:51:06;;;;;;;;;;;8.37;15.30;;;;;;2668091;76;20495;-89
2023/03/29 06:54:34;;;;;;;;;;;8.66;14.43;;;;;;2668624;76;20424;-89
2023/03/29 06:58:07;;;;;;;;;;;9.08;13.74;;;;;;2667574;76;20477;-89
2023/03/29 07:01:33;;;;;;;;;;;9.61;13.70;;;;;;2667922;76;20465;-89
2023/03/29 07:05:10;;;;;;;;;;;9.90;13.11;;;;;;2667474;76;20452;-88
2023/03/29 07:08:39;;;;;;;;;;;9.96;12.05;;;;;;2668143;76;20905;-89
2023/03/29 07:12:04;;;;;;;;;;;10.16;10.94;;;;;;2667770;76;20469;-89
2023/03/29 07:15:33;;;;;;;;;;;10.37;10.27;;;;;;2667394;76;20444;-89
2023/03/29 07:19:09;;;;;;;;;;;10.67;9.65;;;;;;2667364;76;20415;-89
2023/03/29 07:22:34;;;;;;;;;;;11.01;8.95;;;;;;2668115;76;20299;-89
2023/03/29 07:26:08;;;;;;;;;;;11.24;7.50;;;;;;2667279;76;20502;-89
2023/03/29 07:29:36;;;;;;;;;;;11.24;6.81;;;;;;2667493;76;20948;-89
2023/03/29 07:33:04;;;;;;;;;;;11.33;6.98;;;;;;2668251;76;20446;-90
2023/03/29 07:36:33;;;;;;;;;;;11.51;7.29;;;;;;2667345;76;20304;-89
2023/03/29 07:40:08;;;;;;;;;;;11.53;5.81;;;;;;2666958;76;20518;-89
2023/03/29 07:43:34;;;;;;;;;;;11.73;5.20;;;;;;2667921;76;20428;-89
2023/03/29 07:47:03;;;;;;;;;;;12.04;5.44;;;;;;2667490;76;20418;-90
2023/03/29 07:50:31;;;;;;;;;;;11.90;2.97;;;;;;2668645;76;20360;-89
2023/03/29 07:54:00;;;;;;;;;;;12.20;2.47;;;;;;2668417;76;20465;-89
2023/03/29 07:57:28;;;;;;;;;;;12.29;0.74;;;;;;2667452;76;20432;-89
2023/03/29 08:00:56;;;;;;;;;;;12.55;0.20;;;;;;2668739;76;21307;-88
2023/03/29 08:04:25;;;;;;;;;;;12.61;0.48;;;;;;2668267;76;20452;-89
2023/03/29 08:07:56;;;;;;;;;;;12.38;1.32;;;;;;2667397;76;20453;-89
2023/03/29 08:11:24;;;;;;;;;;;12.16;1.38;;;;;;2668707;76;20478;-89
2023/03/29 08:14:52;;;;;;;;;;;12.27;1.60;;;;;;2667599;76;20399;-89
2023/03/29 08:18:23;;;;;;;;;;;12.61;1.04;;;;;;2667412;76;20485;-90
2023/03/29 08:21:52;;;;;;;;;;;13.02;-0.10;;;;;;2667928;76;20497;-90
2023/03/29 08:25:21;;;;;;;;;;;13.35;-1.16;;;;;;2668135;76;20428;-90
2023/03/29 08:28:49;;;;;;;;;;;13.22;-1.57;;;;;;2667225;76;20479;-90
2023/03/29 08:32:17;;;;;;;;;;;12.90;-2.44;;;;;;2667788;76;20456;-89
2023/03/29 08:35:45;;;;;;;;;;;12.48;-2.79;;;;;;2668684;76;20925;-89
2023/03/29 08:39:13;;;;;;;;;;;12.32;-2.95;;;;;;2668135;76;20433;-89
2023/03/29 08:42:42;;;;;;;;;;;12.86;-2.33;;;;;;2668064;76;20946;-89
2023/03/29 08:46:12;;;;;;;;;;;13.19;-3.57;;;;;;2667977;76;20462;-89
2023/03/29 08:49:40;;;;;;;;;;;13.41;-4.77;;;;;;2668310;76;20939;-89
2023/03/29 08:53:08;;;;;;;;;;;14.12;-3.85;;;;;;2668953;76;20500;-89
2023/03/29 08:56:39;;;;;;;;;;;13.93;-5.60;;;;;;2668209;76;20483;-89
2023/03/29 09:00:23;;;;;;;;;;;14.20;-4.50;;;;;;2666146;76;20422;-89
2023/03/29 09:03:44;;;;;;;;;;;14.57;-4.89;;;;;;2668016;76;20955;-90
2023/03/29 09:07:12;;;;;;;;;;;14.64;-5.54;;;;;;2666244;76;20486;-89
2023/03/29 09:10:40;;;;;;;;;;;14.73;118.68;;;;;;2668462;76;20440;-90
2023/03/29 09:14:08;;;;;;;;;;;14.66;118.21;;;;;;2667672;76;20357;-90
2023/03/29 09:17:39;;;;;;;;;;;14.25;117.18;;;;;;2667504;76;20475;-90
2023/03/29 09:21:08;;;;;;;;;;;14.40;117.62;;;;;;2668755;76;20443;-90
2023/03/29 09:24:37;;;;;;;;;;;14.57;117.56;;;;;;2667534;76;20475;-90
2023/03/29 09:28:08;;;;;;;;;;;14.85;117.99;;;;;;2667792;76;20841;-90
2023/03/29 09:31:36;;;;;;;;;;;14.65;116.38;;;;;;2667746;76;20460;-90
2023/03/29 09:35:07;;;;;;;;;;;15.04;116.92;;;;;;2668049;76;20547;-90
2023/03/29 09:38:36;;;;;;;;;;;15.26;117.79;;;;;;2668947;76;20883;-89
2023/03/29 09:42:06;;;;;;;;;;;15.28;117.14;;;;;;2668341;76;20492;-90
2023/03/29 09:45:37;;;;;;;;;;;15.42;116.02;;;;;;2668359;76;20453;-90
2023/03/29 09:49:05;;;;;;;;;;;15.49;114.04;;;;;;2668313;76;20314;-89
2023/03/29 09:52:34;;;;;;;;;;;15.77;113.36;;;;;;2668227;76;20447;-90
2023/03/29 09:56:02;;;;;;;;;;;15.51;111.61;;;;;;2668864;76;20361;-90
2023/03/29 09:59:36;;;;;;;;;;;15.28;111.63;;;;;;2668196;76;20439;-90
2023/03/29 10:03:03;;;;;;;;;;;15.18;111.27;;;;;;2667491;76;20485;-90
2023/03/29 10:06:33;;;;;;;;;;;15.45;111.00;;;;;;2668501;76;20445;-90
2023/03/29 10:10:01;;;;;;;;;;;15.25;108.91;;;;;;2667840;76;21078;-90
2023/03/29 10:13:34;;;;;;;;;;;15.42;108.75;;;;;;2668019;76;20432;-90
2023/03/29 10:16:59;;;;;;;;;;;16.13;109.17;;;;;;2668105;76;20478;-90
2023/03/29 10:20:28;;;;;;;;;;;16.52;108.59;;;;;;2672216;76;20447;-90
2023/03/29 10:24:01;;;;;;;;;;;16.22;107.45;;;;;;2671163;76;20436;-90
2023/03/29 10:27:26;;;;;;;;;;;15.91;107.00;;;;;;2668297;76;20455;-90
2023/03/29 10:31:00;;;;;;;;;;;16.19;108.04;;;;;;2667533;76;20427;-90
2023/03/29 10:34:31;;;;;;;;;;;16.17;107.46;;;;;;2668503;76;20466;-90
2023/03/29 10:37:58;;;;;;;;;;;16.08;107.20;;;;;;2669134;76;20453;-90
2023/03/29 10:41:29;;;;;;;;;;;15.54;107.18;;;;;;2671246;76;20990;-90
2023/03/29 10:44:57;;;;;;;;;;;15.80;108.40;;;;;;2669465;76;20448;-89
2023/03/29 10:48:26;;;;;;;;;;;15.91;107.89;;;;;;2670948;76;20452;-90
2023/03/29 10:51:54;;;;;;;;;;;15.92;107.93;;;;;;2671458;76;21165;-90
2023/03/29 10:55:23;;;;;;;;;;;15.93;107.28;;;;;;2670814;76;20447;-89
2023/03/29 10:58:51;;;;;;;;;;;16.02;106.60;;;;;;2670769;76;20432;-90
2023/03/29 11:02:19;;;;;;;;;;;16.49;107.05;;;;;;2670338;76;20506;-88
2023/03/29 11:05:48;;;;;;;;;;;16.74;106.98;;;;;;2670704;76;20449;-90
2023/03/29 11:09:24;;;;;;;;;;;16.06;105.56;;;;;;2670479;76;20461;-90
2023/03/29 11:13:03;;;;;;;;;;;16.43;106.28;;;;;;2669874;76;20438;-91
2023/03/29 11:16:28;;;;;;;;;;;17.21;107.62;;;;;;2670947;76;20448;-91
2023/03/29 11:19:57;;;;;;;;;;;17.26;106.97;;;;;;2671450;76;20436;-91
2023/03/29 11:23:26;;;;;;;;;;;16.96;105.16;;;;;;2670308;76;22002;-91
2023/03/29 11:26:54;;;;;;;;;;;16.82;104.64;;;;;;2669594;76;20451;-92
2023/03/29 11:30:23;;;;;;;;;;;16.16;103.47;;;;;;2669570;76;20915;-89
2023/03/29 11:33:51;;;;;;;;;;;16.33;104.72;;;;;;2666062;76;20432;-91
2023/03/29 11:37:19;;;;;;;;;;;16.52;104.65;;;;;;2667810;76;20480;-91
2023/03/29 11:40:47;;;;;;;;;;;16.17;103.73;;;;;;2668556;76;21129;-91
2023/03/29 11:44:16;;;;;;;;;;;15.73;104.45;;;;;;2668266;76;20479;-91
2023/03/29 11:47:44;;;;;;;;;;;16.03;105.50;;;;;;2668742;76;20950;-91
2023/03/29 11:51:14;;;;;;;;;;;16.45;105.31;;;;;;2668426;76;20495;-91
2023/03/29 11:54:43;;;;;;;;;;;16.14;104.39;;;;;;2668542;76;20330;-91
2023/03/29 11:58:13;;;;;;;;;;;16.17;103.81;;;;;;2668079;76;20520;-91
2023/03/29 12:01:49;;;;;;;;;;;16.24;102.50;;;;;;2667759;76;20969;-92
2023/03/29 12:05:12;;;;;;;;;;;16.42;102.31;;;;;;2669060;76;20442;-91
2023/03/29 12:08:40;;;;;;;;;;;16.94;102.21;;;;;;2667623;76;20448;-92
2023/03/29 12:12:11;;;;;;;;;;;16.51;100.83;;;;;;2667573;76;20471;-91
2023/03/29 12:15:39;;;;;;;;;;;17.06;101.19;;;;;;2668649;76;20947;-92
2023/03/29 12:19:08;;;;;;;;;;;17.13;99.55;;;;;;2668638;76;20533;-92
2023/03/29 12:22:44;;;;;;;;;;;17.25;98.43;;;;;;2668244;76;21009;-91
2023/03/29 12:26:09;;;;;;;;;;;17.60;97.61;;;;;;2667838;76;20452;-92
2023/03/29 12:29:37;;;;;;;;;;;17.87;97.01;;;;;;2671460;76;20486;-91
2023/03/29 12:33:06;;;;;;;;;;;18.61;97.23;;;;;;2671167;76;20468;-91
2023/03/29 12:36:34;;;;;;;;;;;18.41;95.94;;;;;;2667482;76;20445;-91
2023/03/29 12:40:02;;;;;;;;;;;18.63;96.23;;;;;;2668259;76;20429;-92
2023/03/29 12:43:30;;;;;;;;;;;18.21;96.36;;;;;;2668584;76;20445;-92
2023/03/29 12:46:59;;;;;;;;;;;17.34;97.36;;;;;;2668474;76;20447;-91
2023/03/29 12:50:29;;;;;;;;;;;17.32;98.44;;;;;;2668127;76;20346;-92
2023/03/29 12:53:57;;;;;;;;;;;17.54;98.60;;;;;;2668468;76;20454;-91
2023/03/29 12:57:26;;;;;;;;;;;16.86;98.79;;;;;;2671226;76;20767;-91
2023/03/29 13:00:54;;;;;;;;;;;16.41;100.34;;;;;;2671314;76;20371;-91
2023/03/29 13:04:22;;;;;;;;;;;16.34;100.49;;;;;;2671547;76;20492;-91
2023/03/29 13:07:54;;;;;;;;;;;16.21;101.06;;;;;;2672301;76;20466;-90
2023/03/29 13:11:23;;;;;;;;;;;16.44;102.56;;;;;;2670904;76;20486;-90
2023/03/29 13:14:53;;;;;;;;;;;17.01;102.08;;;;;;2669039;76;20454;-90
2023/03/29 13:18:21;;;;;;;;;;;17.47;100.74;;;;;;2671391;76;20437;-91
2023/03/29 13:21:49;;;;;;;;;;;18.55;99.41;;;;;;2670614;76;20413;-90
2023/03/29 13:25:17;;;;;;;;;;;18.19;96.99;;;;;;2670931;76;20432;-90
2023/03/29 13:28:46;;;;;;;;;;;17.50;97.58;;;;;;2670781;76;20476;-90
2023/03/29 13:32:14;;;;;;;;;;;17.29;98.80;;;;;;2669838;76;20420;-90
2023/03/29 13:35:42;;;;;;;;;;;17.36;99.31;;;;;;2669995;76;20954;-90
2023/03/29 13:39:13;;;;;;;;;;;17.81;99.25;;;;;;2670332;76;20489;-91
2023/03/29 13:42:41;;;;;;;;;;;17.53;98.18;;;;;;2669828;76;20446;-90
2023/03/29 13:46:10;;;;;;;;;;;17.91;98.45;;;;;;2670657;76;20420;-90
2023/03/29 13:49:38;;;;;;;;;;;18.36;98.22;;;;;;2670607;76;20336;-90
2023/03/29 13:53:09;;;;;;;;;;;18.40;98.73;;;;;;2670635;76;20464;-90
2023/03/29 13:56:37;;;;;;;;;;;18.22;97.97;;;;;;2670169;76;20949;-90
2023/03/29 14:00:12;;;;;;;;;;;19.14;98.57;;;;;;2670173;76;20397;-90
2023/03/29 14:03:35;;;;;;;;;;;18.62;97.59;;;;;;2668548;76;20461;-89
2023/03/29 14:07:03;;;;;;;;;;;19.29;98.12;;;;;;2670028;76;20413;-89
2023/03/29 14:10:31;;;;;;;;;;;19.07;97.25;;;;;;2670511;76;20447;-90
2023/03/29 14:14:00;;;;;;;;;;;19.38;98.07;;;;;;2669546;76;20432;-90
2023/03/29 14:17:28;;;;;;;;;;;19.14;98.10;;;;;;2670876;76;20499;-90
2023/03/29 14:20:56;;;;;;;;;;;19.27;97.40;;;;;;2671672;76;20432;-89
2023/03/29 14:24:24;;;;;;;;;;;19.39;95.72;;;;;;2670406;76;20925;-91
2023/03/29 14:27:52;;;;;;;;;;;19.33;95.23;;;;;;2672271;76;20404;-90
2023/03/29 14:31:23;;;;;;;;;;;19.07;94.58;;;;;;2670850;76;21032;-91
2023/03/29 14:34:51;;;;;;;;;;;18.43;93.58;;;;;;2670045;76;20527;-92
2023/03/29 14:38:20;;;;;;;;;;;18.69;95.33;;;;;;2671438;76;20327;-90
2023/03/29 14:41:48;;;;;;;;;;;18.02;93.69;;;;;;2671254;76;20433;-90
2023/03/29 14:45:16;;;;;;;;;;;17.34;92.12;;;;;;2670757;76;20468;-91
2023/03/29 14:48:45;;;;;;;;;;;17.15;94.51;;;;;;2670383;76;20495;-90
2023/03/29 14:52:13;;;;;;;;;;;16.59;94.91;;;;;;2669300;76;20432;-90
2023/03/29 14:55:43;;;;;;;;;;;16.43;95.39;;;;;;2671257;76;20842;-89
2023/03/29 14:59:11;;;;;;;;;;;16.15;96.24;;;;;;2670301;76;20960;-89
2023/03/29 15:02:39;;;;;;;;;;;15.95;97.20;;;;;;2670025;76;20917;-91
2023/03/29 15:06:07;;;;;;;;;;;15.81;97.62;;;;;;2669698;76;20704;-90
2023/03/29 15:09:37;;;;;;;;;;;15.75;98.52;;;;;;2671220;76;20408;-89
2023/03/29 15:13:05;;;;;;;;;;;15.76;99.06;;;;;;2669705;76;20463;-90
2023/03/29 15:16:33;;;;;;;;;;;16.08;99.80;;;;;;2669772;76;20346;-90
2023/03/29 15:20:06;;;;;;;;;;;16.36;100.73;;;;;;2667329;76;20476;-90
2023/03/29 15:23:31;;;;;;;;;;;16.03;100.57;;;;;;2670227;76;20432;-91
2023/03/29 15:27:00;;;;;;;;;;;15.81;101.41;;;;;;2671879;76;20455;-91
2023/03/29 15:30:30;;;;;;;;;;;15.59;102.27;;;;;;2670298;76;20443;-89
2023/03/29 15:33:57;;;;;;;;;;;15.24;102.87;;;;;;2670300;76;20329;-90
2023/03/29 15:37:26;;;;;;;;;;;15.07;103.73;;;;;;2669771;76;20488;-89
2023/03/29 15:40:54;;;;;;;;;;;14.82;105.35;;;;;;2670503;76;20329;-90
2023/03/29 15:44:24;;;;;;;;;;;14.65;108.52;;;;;;2670195;76;20698;-87
2023/03/29 15:47:52;;;;;;;;;;;14.51;109.91;;;;;;2672397;76;20480;-88
2023/03/29 15:51:22;;;;;;;;;;;14.58;110.22;;;;;;2672038;76;20840;-90
2023/03/29 15:54:50;;;;;;;;;;;14.67;110.68;;;;;;2672371;76;20932;-89
2023/03/29 15:58:19;;;;;;;;;;;14.72;111.10;;;;;;2671407;76;20468;-91
2023/03/29 16:01:47;;;;;;;;;;;14.60;111.36;;;;;;2671355;76;21199;-90
2023/03/29 16:05:15;;;;;;;;;;;14.66;111.18;;;;;;2671105;76;20434;-90
2023/03/29 16:08:43;;;;;;;;;;;14.59;110.96;;;;;;2670372;76;20459;-90
2023/03/29 16:12:16;;;;;;;;;;;14.41;111.17;;;;;;2669359;76;20425;-90
2023/03/29 16:15:41;;;;;;;;;;;14.37;111.52;;;;;;2668760;76;20487;-89
2023/03/29 16:19:09;;;;;;;;;;;14.40;111.68;;;;;;2668897;76;20337;-89
2023/03/29 16:22:38;;;;;;;;;;;14.11;112.36;;;;;;2669324;76;20462;-87
2023/03/29 16:26:06;;;;;;;;;;;14.24;112.52;;;;;;2668456;76;20448;-89
2023/03/29 16:29:34;;;;;;;;;;;14.23;112.70;;;;;;2669510;76;20474;-89
2023/03/29 16:33:07;;;;;;;;;;;14.19;113.27;;;;;;2670045;76;20438;-89
2023/03/29 16:36:33;;;;;;;;;;;14.14;113.34;;;;;;2669343;76;20700;-90
2023/03/29 16:40:04;;;;;;;;;;;14.01;113.67;;;;;;2671329;76;20474;-89
2023/03/29 16:43:31;;;;;;;;;;;13.97;114.17;;;;;;2669245;76;20531;-89
2023/03/29 16:46:59;;;;;;;;;;;13.94;114.25;;;;;;2668709;76;20489;-89
2023/03/29 16:50:37;;;;;;;;;;;13.84;114.61;;;;;;2669893;76;20444;-89
2023/03/29 16:54:06;;;;;;;;;;;13.75;115.29;;;;;;2669880;76;20456;-89
2023/03/29 16:57:36;;;;;;;;;;;13.68;115.80;;;;;;2669132;76;20544;-89
2023/03/29 17:01:04;;;;;;;;;;;13.60;116.01;;;;;;2671462;76;20866;-89
2023/03/29 17:04:32;;;;;;;;;;;13.51;116.37;;;;;;2669881;76;20472;-90
2023/03/29 17:08:01;;;;;;;;;;;13.46;116.50;;;;;;2669793;76;20458;-90
2023/03/29 17:11:29;;;;;;;;;;;13.44;116.53;;;;;;2669009;76;21959;-87
2023/03/29 17:15:00;;;;;;;;;;;13.38;116.71;;;;;;2666731;76;20486;-89
2023/03/29 17:18:27;;;;;;;;;;;13.36;116.75;;;;;;2666679;76;20551;-90
2023/03/29 17:21:55;;;;;;;;;;;13.29;116.91;;;;;;2667789;76;20479;-90
2023/03/29 17:25:23;;;;;;;;;;;13.25;117.20;;;;;;2670932;76;20886;-89
2023/03/29 17:28:51;;;;;;;;;;;13.19;117.18;;;;;;2667890;76;20518;-90
2023/03/29 17:32:22;;;;;;;;;;;13.16;117.43;;;;;;2668659;76;20454;-90
2023/03/29 17:35:52;;;;;;;;;;;13.11;117.62;;;;;;2662897;76;20444;-89
2023/03/29 17:39:20;;;;;;;;;;;13.09;117.88;;;;;;2662423;76;21130;-89
2023/03/29 17:42:49;;;;;;;;;;;13.04;118.10;;;;;;2666362;76;20876;-89
2023/03/29 17:46:21;;;;;;;;;;;13.00;118.26;;;;;;2669162;76;20473;-89
2023/03/29 17:49:46;;;;;;;;;;;12.99;118.33;;;;;;2669470;76;20452;-87
2023/03/29 17:53:15;;;;;;;;;;;12.95;118.64;;;;;;2671707;76;20325;-89
2023/03/29 17:56:43;;;;;;;;;;;12.93;118.73;;;;;;2669231;76;20478;-88
2023/03/29 18:00:21;;;;;;;;;;;12.91;-5.92;;;;;;2668411;76;20451;-87
2023/03/29 18:03:46;;;;;;;;;;;12.89;-5.82;;;;;;2670856;76;20485;-88
2023/03/29 18:07:16;;;;;;;;;;;12.88;-5.60;;;;;;2670447;76;20435;-90
2023/03/29 18:10:44;;;;;;;;;;;12.85;-5.49;;;;;;2670870;76;20432;-89
2023/03/29 18:14:12;;;;;;;;;;;12.84;-5.36;;;;;;2669931;76;20475;-90
2023/03/29 18:17:43;;;;;;;;;;;12.79;-5.25;;;;;;2666673;76;20504;-90
2023/03/29 18:21:12;;;;;;;;;;;12.79;-5.13;;;;;;2669478;76;20480;-90
2023/03/29 18:24:40;;;;;;;;;;;12.73;-4.87;;;;;;2668826;76;20964;-88
2023/03/29 18:28:08;;;;;;;;;;;12.67;-4.66;;;;;;2666096;76;20472;-89
2023/03/29 18:31:36;;;;;;;;;;;12.61;-4.65;;;;;;2669217;76;20479;-90
2023/03/29 18:35:05;;;;;;;;;;;12.61;-4.47;;;;;;2669954;76;20459;-89
2023/03/29 18:38:34;;;;;;;;;;;12.59;-4.31;;;;;;2669521;76;20469;-90
2023/03/29 18:42:02;;;;;;;;;;;12.57;-4.01;;;;;;2670624;76;20448;-89
2023/03/29 18:45:30;;;;;;;;;;;12.55;-3.96;;;;;;2666790;76;20424;-88
2023/03/29 18:48:58;;;;;;;;;;;12.57;-3.88;;;;;;2667520;76;20897;-88
2023/03/29 18:52:26;;;;;;;;;;;12.58;-3.96;;;;;;2668386;76;20910;-89
2023/03/29 18:55:54;;;;;;;;;;;12.57;-3.96;;;;;;2668793;76;20685;-89
2023/03/29 18:59:22;;;;;;;;;;;12.46;-3.82;;;;;;2667440;76;20455;-88
2023/03/29 19:02:51;;;;;;;;;;;12.29;-3.60;;;;;;2669851;76;20432;-89
2023/03/29 19:06:19;;;;;;;;;;;12.26;-3.20;;;;;;2669906;76;20422;-87
2023/03/29 19:09:50;;;;;;;;;;;12.20;-3.06;;;;;;2669507;76;21951;-90
2023/03/29 19:13:18;;;;;;;;;;;12.16;-2.94;;;;;;2670149;76;20472;-89
2023/03/29 19:16:46;;;;;;;;;;;12.11;-2.70;;;;;;2669383;76;20418;-90
2023/03/29 19:20:20;;;;;;;;;;;12.05;-2.34;;;;;;2666896;76;20466;-89
2023/03/29 19:23:51;;;;;;;;;;;12.06;-2.12;;;;;;2667758;76;20464;-90
2023/03/29 19:27:19;;;;;;;;;;;12.06;-2.15;;;;;;2667296;76;20454;-89
2023/03/29 19:30:47;;;;;;;;;;;12.02;-2.06;;;;;;2668564;76;20476;-89
2023/03/29 19:34:18;;;;;;;;;;;11.98;-2.05;;;;;;2669992;76;20462;-89
2023/03/29 19:37:45;;;;;;;;;;;11.88;-2.02;;;;;;2669421;76;20481;-89
2023/03/29 19:41:15;;;;;;;;;;;11.75;-1.68;;;;;;2667923;76;20434;-87
2023/03/29 19:44:43;;;;;;;;;;;11.75;-1.51;;;;;;2670646;76;21280;-87
2023/03/29 19:48:11;;;;;;;;;;;11.81;-1.09;;;;;;2668529;76;20440;-86
2023/03/29 19:51:42;;;;;;;;;;;11.79;-1.09;;;;;;2670609;76;20463;-89
2023/03/29 19:59:03;;;;;;;;;;;11.77;-0.66;;;;;;2666488;76;20449;-91
2023/03/29 20:06:16;;;;;;;;;;;11.92;-0.45;;;;;;2667083;76;20481;-90
2023/03/29 20:10:20;;;;;;;;;;;11.96;-0.35;;;;;;2667838;76;20333;-91
2023/03/29 20:13:34;;;;;;;;;;;11.98;0.14;;;;;;2664973;76;20475;-90
2023/03/29 20:20:41;;;;;;;;;;;12.06;0.44;;;;;;2669638;76;20458;-90
2023/03/29 20:24:21;;;;;;;;;;;12.01;0.81;;;;;;2669073;76;20459;-89
2023/03/29 20:28:02;;;;;;;;;;;11.86;2.01;;;;;;2668343;76;21453;-90